TJBQ/BQN METAR and TAF weather

Enter ICAO airport designator
Station Type Date Time Source
TJBQ METAR 2019/04/20 21:50 UTC NOAA

TJBQ 202150Z 09013G18KT 10SM SCT025 BKN060 26/21 A3004


Station Type Date Time Source
TJBQ Decoded METAR 2019/04/20 21:50 UTC NOAA

Aquadilla, Rafael Hernandez Airport, PR, United States (TJBQ) 18-30N 067-08W 69M
Apr 20, 2019 - 05:50 PM EDT / 2019.04.20 2150 UTC
Wind: from the E (090 degrees) at 15 MPH (13 KT) gusting to 21 MPH (18 KT):0
Visibility: 10 mile(s):0
Sky conditions: mostly cloudy
Temperature: 78 F (26 C)
Dew Point: 69 F (21 C)
Relative Humidity: 73%
Pressure (altimeter): 30.04 in. Hg (1017 hPa)
ob: TJBQ 202150Z 09013G18KT 10SM SCT025 BKN060 26/21 A3004
cycle: 22

Station Type Date Time Source
TJBQ TAF 2019/04/20 21:27 UTC NOAA

TAF TJBQ 202122Z 2021/2118 09015KT P6SM VCSH SCT025 BKN060
FM202300 09012KT P6SM SCT025
FM211300 08018G25KT P6SM FEW050
FM211700 08020G28KT P6SM VCSH FEW025 SCT030 SCT050

Example: see airport list